KGYL

Glencoe Municipal Airport

Glencoe, Minnesota, USA
METAR KGYL 230256Z AUTO 07005KT 10SM CLR 21/14 A3002 RMK AO2 T02050140
Observed Flight Rules
May-23 @ 02:56 UTC (19 minutes ago) Visual Flight Rules
Wind Visibility Clouds
70° at 5 knots 10 miles
  • Clear skies
Temperatures Readings
Current 21°C / 70°F
Dewpoint 14°C / 57°F
Humidity 64%
Altimeter 30.02" Hg
Pressure 1017 hPa
Elevation 302
METAR KGYL 230256Z AUTO 07005KT 10SM CLR 21/14 A3002 RMK AO2 T02050140
Observed Flight Rules
May-23 @ 02:56 UTC
(19 minutes ago)
VFR
Wind Visibility
70° at 5 knots 10 miles
Clouds
  • Clear skies
Temperature Dewpoint
21°C / 70°F 14°C / 57°F
Humidity Altimeter Pressure
64% 30.02" Hg 1017 hPa